Terminal Aerodrome Forecast
Issued by NWS Wilmington, NC

Home | Current Version | Previous Version | Text Only | Print | Product List | Glossary On
Versions: 1 2 3 4 5 6 7 8 9 10 11 12 13
000
FTUS42 KILM 280201 AAB
TAFILM
TAF AMD
KILM 280201Z 2802/2824 VRB03KT P6SM FEW015
     FM280900 03005KT P6SM FEW008 SCT015
     FM281200 05007KT P6SM SCT025
     FM281500 08010KT P6SM BKN050=

USA.gov is the U.S. government's official web portal to all federal, state and local government web resources and services.